Time;durP1;ratioP1;P1;durP2;ratioP2;P2;SDS_P1;SDS_P2;PMS_P1;PMS_P2;Temp;Humidity;BMP_temperature;BMP_pressure;BME280_temperature;BME280_humidity;BME280_pressure;Samples;Min_cycle;Max_cycle;Signal;HPM_P1;HPM_P2
2022/11/07 00:00:35;;;;;;;;;44.00;36.25;;;;;17.30;63.07;99629.28;4963203;28;8856;-77
2022/11/07 00:03:05;;;;;;;;;45.00;38.00;;;;;17.27;62.71;99635.47;4996077;28;8851;-78
2022/11/07 00:05:33;;;;;;;;;50.50;40.00;;;;;17.18;62.18;99633.09;5012898;28;9643;-81
2022/11/07 00:08:02;;;;;;;;;44.50;36.00;;;;;17.00;63.01;99633.59;4996396;28;8863;-79
2022/11/07 00:10:31;;;;;;;;;45.50;38.00;;;;;17.04;63.21;99641.34;4991824;28;8948;-78
2022/11/07 00:12:59;;;;;;;;;41.25;34.75;;;;;17.11;63.32;99640.31;4992521;28;8861;-76
2022/11/07 00:15:29;;;;;;;;;41.75;35.00;;;;;17.18;63.16;99642.75;4976439;28;8854;-78
2022/11/07 00:17:58;;;;;;;;;49.00;39.50;;;;;17.22;63.06;99637.41;5011791;28;8843;-77
2022/11/07 00:20:26;;;;;;;;;41.50;36.75;;;;;17.31;62.59;99639.75;5027893;28;8983;-77
2022/11/07 00:22:55;;;;;;;;;44.75;36.25;;;;;17.37;62.80;99638.72;5011429;28;8917;-77
2022/11/07 00:25:23;;;;;;;;;39.25;35.00;;;;;17.39;62.49;99650.13;5027871;28;8878;-77
2022/11/07 00:27:52;;;;;;;;;46.25;36.75;;;;;17.42;61.86;99652.66;5047407;28;8949;-79
2022/11/07 00:30:20;;;;;;;;;43.00;37.00;;;;;17.43;62.42;99645.59;4998852;28;8872;-78
2022/11/07 00:32:50;;;;;;;;;45.25;38.25;;;;;17.46;62.53;99640.25;5050130;28;8857;-80
2022/11/07 00:35:26;;;;;;;;;50.50;38.75;;;;;17.45;62.26;99644.69;5049051;28;8902;-75
2022/11/07 00:37:55;;;;;;;;;50.00;38.00;;;;;17.48;62.27;99641.09;5050188;28;8875;-76
2022/11/07 00:40:23;;;;;;;;;53.25;42.50;;;;;17.48;62.25;99641.94;5049293;28;8856;-78
2022/11/07 00:42:52;;;;;;;;;45.75;36.50;;;;;17.46;62.28;99641.13;5008990;28;9123;-78
2022/11/07 00:45:20;;;;;;;;;50.00;39.75;;;;;17.49;62.42;99643.69;5030588;28;9668;-79
2022/11/07 00:47:51;;;;;;;;;50.25;40.75;;;;;17.49;62.02;99646.31;5003203;28;8906;-77
2022/11/07 00:50:20;;;;;;;;;41.50;36.25;;;;;17.49;62.18;99641.06;5012756;28;9640;-76
2022/11/07 00:52:48;;;;;;;;;41.25;36.50;;;;;17.46;61.58;99646.38;5029205;28;8993;-76
2022/11/07 00:55:17;;;;;;;;;33.25;28.25;;;;;17.41;61.91;99643.03;5012250;28;8867;-76
2022/11/07 00:57:45;;;;;;;;;37.50;33.00;;;;;17.38;61.99;99639.63;5030727;28;8929;-78
2022/11/07 01:00:14;;;;;;;;;42.75;36.50;;;;;17.40;62.13;99641.28;5029515;28;8859;-79
2022/11/07 01:02:43;;;;;;;;;39.00;34.50;;;;;17.42;62.26;99638.63;5028913;28;9064;-81
2022/11/07 01:05:12;;;;;;;;;31.00;29.60;;;;;17.43;62.29;99651.78;5028850;28;8941;-75
2022/11/07 01:07:41;;;;;;;;;42.50;36.00;;;;;17.43;61.73;99651.78;5011774;28;8902;-78
2022/11/07 01:10:09;;;;;;;;;41.50;34.50;;;;;17.41;61.94;99650.06;5029879;28;8860;-80
2022/11/07 01:12:38;;;;;;;;;38.25;33.25;;;;;17.34;61.55;99647.59;5028090;28;8870;-79
2022/11/07 01:15:07;;;;;;;;;41.25;34.75;;;;;17.36;61.89;99641.44;5037443;28;8856;-78
2022/11/07 01:17:36;;;;;;;;;36.00;32.00;;;;;17.21;61.49;99640.91;5014464;28;8937;-78
2022/11/07 01:20:06;;;;;;;;;43.50;35.25;;;;;16.70;62.82;99642.16;4993901;28;8893;-75
2022/11/07 01:22:36;;;;;;;;;33.80;31.60;;;;;16.90;62.68;99643.47;5010332;28;8886;-78
2022/11/07 01:25:06;;;;;;;;;37.75;34.75;;;;;16.75;63.23;99645.56;5027788;28;8871;-77
2022/11/07 01:27:35;;;;;;;;;39.50;33.50;;;;;16.84;63.24;99644.50;5028973;28;8852;-76
2022/11/07 01:30:04;;;;;;;;;31.00;30.80;;;;;16.29;64.67;99649.22;4997408;28;9101;-80
2022/11/07 01:32:33;;;;;;;;;39.50;31.00;;;;;16.37;64.78;99644.69;5012941;28;8871;-80
2022/11/07 01:35:01;;;;;;;;;41.00;33.00;;;;;16.57;64.31;99646.84;5035712;28;8848;-76
2022/11/07 01:37:30;;;;;;;;;37.50;34.25;;;;;16.68;64.27;99643.09;5050304;28;8861;-75
2022/11/07 01:40:00;;;;;;;;;39.25;34.25;;;;;16.72;63.86;99645.63;5048726;28;8861;-77
2022/11/07 01:42:29;;;;;;;;;25.40;24.00;;;;;16.47;64.26;99649.75;5046718;28;8863;-77
2022/11/07 01:44:59;;;;;;;;;39.50;34.25;;;;;16.32;64.55;99640.44;5031783;28;8894;-75
2022/11/07 01:47:31;;;;;;;;;35.60;32.00;;;;;16.57;64.65;99640.72;5029178;28;8866;-74
2022/11/07 01:50:01;;;;;;;;;34.80;31.40;;;;;16.69;64.05;99635.19;5028490;28;8983;-77
2022/11/07 01:52:34;;;;;;;;;41.25;35.00;;;;;16.85;64.20;99637.47;5011600;28;8878;-78
2022/11/07 01:55:08;;;;;;;;;35.00;32.20;;;;;16.91;63.99;99640.78;5010402;28;8871;-78
2022/11/07 01:57:40;;;;;;;;;46.50;35.00;;;;;16.67;63.80;99636.09;5013360;28;8890;-75
2022/11/07 02:00:12;;;;;;;;;39.25;34.50;;;;;16.45;64.51;99646.28;5028442;28;8851;-76
2022/11/07 02:02:42;;;;;;;;;46.00;34.75;;;;;16.27;64.69;99648.41;5027163;28;8844;-75
2022/11/07 02:05:17;;;;;;;;;33.20;32.20;;;;;16.62;64.63;99654.66;5026540;28;8875;-76
2022/11/07 02:07:46;;;;;;;;;35.80;32.60;;;;;16.68;64.64;99648.38;5026955;28;8904;-78
2022/11/07 02:10:17;;;;;;;;;32.80;30.60;;;;;16.81;64.12;99639.28;5028363;28;8887;-75
2022/11/07 02:12:45;;;;;;;;;42.80;34.80;;;;;16.97;63.60;99637.13;5028814;28;8928;-75
2022/11/07 02:15:14;;;;;;;;;23.20;20.20;;;;;16.88;62.93;99643.53;5029252;28;8875;-77
2022/11/07 02:17:42;;;;;;;;;36.60;31.40;;;;;16.64;63.78;99637.03;5011998;28;8881;-77
2022/11/07 02:20:12;;;;;;;;;33.50;31.75;;;;;16.38;64.68;99643.75;5027694;28;8902;-77
2022/11/07 02:22:49;;;;;;;;;41.25;31.00;;;;;16.66;63.95;99648.41;5026730;28;8957;-77
2022/11/07 02:25:20;;;;;;;;;33.40;31.80;;;;;16.79;64.19;99645.50;5028672;28;8855;-75
2022/11/07 02:27:52;;;;;;;;;38.25;33.25;;;;;16.07;65.48;99645.38;5034949;28;8867;-77
2022/11/07 02:30:23;;;;;;;;;42.50;34.75;;;;;16.36;64.90;99642.94;5030121;28;8840;-76
2022/11/07 02:32:52;;;;;;;;;33.25;30.50;;;;;16.53;64.65;99645.19;5030044;28;8885;-77
2022/11/07 02:35:37;;;;;;;;;36.50;32.00;;;;;16.46;64.50;99650.63;4987879;28;8902;-74
2022/11/07 02:38:11;;;;;;;;;33.00;32.20;;;;;15.97;65.85;99645.56;5039936;28;8873;-76
2022/11/07 02:40:43;;;;;;;;;37.75;34.00;;;;;15.64;67.18;99652.31;5047732;28;8852;-76
2022/11/07 02:43:14;;;;;;;;;37.00;33.00;;;;;15.77;66.84;99651.22;5087658;28;8964;-76
2022/11/07 02:45:44;;;;;;;;;32.60;28.20;;;;;16.06;65.95;99656.78;5086536;28;8858;-76
2022/11/07 02:48:13;;;;;;;;;39.50;33.00;;;;;16.25;66.04;99650.22;5086525;28;8844;-77
2022/11/07 02:50:42;;;;;;;;;32.60;30.00;;;;;16.47;65.44;99647.13;5052349;28;8881;-78
2022/11/07 02:53:11;;;;;;;;;34.80;32.40;;;;;16.57;64.95;99641.56;5087178;28;8864;-80
2022/11/07 02:55:41;;;;;;;;;31.60;28.80;;;;;16.69;64.96;99643.06;5085208;28;8954;-81
2022/11/07 02:58:10;;;;;;;;;34.20;30.60;;;;;16.76;64.06;99639.38;5069778;28;8861;-76
2022/11/07 03:00:38;;;;;;;;;33.00;29.00;;;;;16.93;63.91;99644.25;5086120;28;9724;-78
2022/11/07 03:03:07;;;;;;;;;31.80;29.60;;;;;17.01;63.33;99632.66;5069058;28;8846;-78
2022/11/07 03:05:35;;;;;;;;;28.20;27.00;;;;;16.95;63.17;99631.91;5069389;28;9701;-77
2022/11/07 03:08:05;;;;;;;;;39.00;32.20;;;;;15.98;66.01;99625.38;5090172;28;9587;-78
2022/11/07 03:10:33;;;;;;;;;37.20;34.40;;;;;15.85;66.79;99632.66;5071447;28;8854;-78
2022/11/07 03:13:03;;;;;;;;;35.80;31.60;;;;;15.99;66.53;99632.34;5073356;28;8830;-76
2022/11/07 03:15:31;;;;;;;;;38.60;32.80;;;;;16.13;65.50;99627.66;5033035;28;8902;-80
2022/11/07 03:18:00;;;;;;;;;32.50;29.00;;;;;16.30;65.40;99631.69;5034824;28;8827;-81
2022/11/07 03:20:29;;;;;;;;;39.00;32.20;;;;;16.41;64.82;99626.16;5033174;28;8921;-77
2022/11/07 03:22:58;;;;;;;;;40.40;34.40;;;;;16.48;64.67;99630.41;5033018;28;8874;-77
2022/11/07 03:25:26;;;;;;;;;41.40;33.20;;;;;16.63;64.39;99621.28;5035420;28;8847;-76
2022/11/07 03:27:55;;;;;;;;;32.40;26.00;;;;;16.69;64.19;99624.63;5040422;28;8896;-80
2022/11/07 03:30:25;;;;;;;;;27.40;24.60;;;;;16.77;64.37;99624.44;5041771;28;8872;-76
2022/11/07 03:32:54;;;;;;;;;35.20;32.00;;;;;16.81;63.86;99630.50;5061663;28;8853;-76
2022/11/07 03:35:23;;;;;;;;;30.20;28.60;;;;;16.89;63.80;99625.94;5034431;28;8860;-77
2022/11/07 03:37:52;;;;;;;;;39.60;32.40;;;;;16.87;63.72;99623.34;5051903;28;8880;-76
2022/11/07 03:40:20;;;;;;;;;36.20;31.00;;;;;16.91;63.75;99632.03;5050128;28;8938;-75
2022/11/07 03:42:49;;;;;;;;;31.00;29.25;;;;;16.89;63.48;99628.56;5050575;28;8849;-78
2022/11/07 03:45:17;;;;;;;;;33.80;32.00;;;;;16.97;63.69;99634.50;5032429;28;8863;-76
2022/11/07 03:47:48;;;;;;;;;42.25;34.00;;;;;17.03;63.04;99637.00;4984034;28;8857;-76
2022/11/07 03:50:18;;;;;;;;;21.00;17.80;;;;;17.10;62.62;99635.91;5050097;28;8849;-76
2022/11/07 03:52:48;;;;;;;;;32.20;31.20;;;;;17.13;62.65;99635.84;5032374;28;8903;-77
2022/11/07 03:55:17;;;;;;;;;30.20;28.00;;;;;17.14;62.74;99631.44;5029617;28;8851;-79
2022/11/07 03:57:46;;;;;;;;;31.20;31.20;;;;;17.21;62.30;99629.53;5029933;28;8855;-78
2022/11/07 04:00:16;;;;;;;;;37.75;31.50;;;;;17.24;62.47;99627.66;5046396;28;8836;-80
2022/11/07 04:02:45;;;;;;;;;32.60;29.60;;;;;17.25;62.20;99628.53;5048488;28;8845;-77
2022/11/07 04:05:15;;;;;;;;;36.40;31.80;;;;;17.29;62.53;99631.03;5049352;28;8950;-77
2022/11/07 04:07:44;;;;;;;;;29.20;27.00;;;;;17.29;62.08;99630.16;5049216;28;8849;-79
2022/11/07 04:10:12;;;;;;;;;36.80;32.60;;;;;17.32;62.04;99630.09;5062814;28;8851;-80
2022/11/07 04:18:13;;;;;;;;;34.00;29.80;;;;;17.39;61.76;99633.41;5031138;28;8878;-77
2022/11/07 04:20:43;;;;;;;;;32.00;30.80;;;;;17.37;62.01;99633.47;5033936;28;8884;-75
2022/11/07 04:23:11;;;;;;;;;42.60;35.20;;;;;17.42;62.16;99639.47;5057775;28;8857;-79
2022/11/07 04:28:26;;;;;;;;;61.50;51.00;;;;;17.47;61.80;99639.38;5051559;28;8956;-76
2022/11/07 04:30:55;;;;;;;;;50.75;38.75;;;;;17.46;62.04;99635.00;5031092;28;8874;-74
2022/11/07 04:33:23;;;;;;;;;37.00;34.75;;;;;17.50;61.83;99624.34;5029590;28;8848;-80
2022/11/07 04:35:53;;;;;;;;;43.00;36.25;;;;;17.49;62.09;99634.91;5012694;28;8879;-81
2022/11/07 04:38:22;;;;;;;;;37.50;33.75;;;;;17.48;61.60;99639.31;5043516;28;8853;-77
2022/11/07 04:40:54;;;;;;;;;35.20;32.40;;;;;17.53;61.65;99636.56;4983373;28;8883;-77
2022/11/07 04:43:24;;;;;;;;;38.75;34.75;;;;;17.45;61.61;99628.00;5032144;28;8861;-78
2022/11/07 04:45:52;;;;;;;;;38.40;33.00;;;;;17.47;61.60;99634.09;5029093;28;8867;-76
2022/11/07 04:48:21;;;;;;;;;118.25;101.00;;;;;17.49;61.92;99642.81;5012598;28;8878;-76
2022/11/07 04:50:50;;;;;;;;;56.25;44.00;;;;;17.47;61.41;99636.72;5033290;28;12448;-77
2022/11/07 04:53:20;;;;;;;;;44.00;35.25;;;;;17.46;61.43;99642.91;5038861;28;8887;-77
2022/11/07 04:55:49;;;;;;;;;38.20;32.60;;;;;17.46;62.02;99643.75;5028846;28;8890;-75
2022/11/07 04:58:18;;;;;;;;;44.75;36.75;;;;;17.44;61.62;99645.56;5029872;28;8859;-81
2022/11/07 05:00:46;;;;;;;;;44.20;33.20;;;;;17.50;61.37;99648.06;5030219;28;8856;-77
2022/11/07 05:03:15;;;;;;;;;35.25;33.25;;;;;17.44;61.28;99639.44;5008454;28;8854;-76
2022/11/07 05:05:44;;;;;;;;;50.25;37.25;;;;;17.43;61.58;99643.84;4977290;28;9659;-77
2022/11/07 05:08:12;;;;;;;;;40.00;34.00;;;;;17.48;61.62;99656.91;5008066;28;8867;-78
2022/11/07 05:10:42;;;;;;;;;51.75;38.25;;;;;17.42;61.38;99657.94;5012922;28;8921;-78
2022/11/07 05:13:11;;;;;;;;;46.40;36.60;;;;;17.44;61.47;99664.03;5029427;28;8914;-77
2022/11/07 05:15:40;;;;;;;;;42.50;35.50;;;;;17.37;61.47;99667.72;5012809;28;8863;-79
2022/11/07 05:18:10;;;;;;;;;42.00;34.60;;;;;17.27;61.83;99663.63;5026761;28;9278;-77
2022/11/07 05:20:40;;;;;;;;;52.25;42.25;;;;;17.28;61.82;99668.84;5027012;28;8883;-76
2022/11/07 05:23:11;;;;;;;;;59.50;44.75;;;;;17.31;62.16;99662.63;5012109;28;8910;-78
2022/11/07 05:25:44;;;;;;;;;60.50;48.25;;;;;17.41;62.36;99669.41;4990699;28;8886;-77
2022/11/07 05:28:14;;;;;;;;;45.75;38.50;;;;;17.49;62.20;99670.06;4970769;28;8854;-78
2022/11/07 05:30:44;;;;;;;;;72.75;56.00;;;;;17.57;61.69;99671.63;4964224;28;8863;-79
2022/11/07 05:33:15;;;;;;;;;54.25;42.75;;;;;17.48;61.86;99673.59;5006833;28;8863;-77
2022/11/07 05:35:46;;;;;;;;;42.25;36.50;;;;;17.47;62.13;99676.28;5012962;28;9035;-76
2022/11/07 05:38:15;;;;;;;;;38.80;35.20;;;;;17.51;61.53;99677.94;5029850;28;8905;-79
2022/11/07 05:40:44;;;;;;;;;102.00;88.50;;;;;17.53;61.70;99676.13;5028467;28;8913;-80
2022/11/07 05:43:14;;;;;;;;;54.25;44.25;;;;;17.50;61.84;99684.97;5045669;28;9988;-77
2022/11/07 05:45:44;;;;;;;;;41.25;35.50;;;;;17.47;62.12;99684.19;5028941;28;8862;-82
2022/11/07 05:48:14;;;;;;;;;47.75;38.00;;;;;17.48;61.91;99685.91;5029349;28;8878;-78
2022/11/07 05:50:43;;;;;;;;;41.25;35.25;;;;;17.53;62.03;99678.75;5044716;28;8878;-77
2022/11/07 05:53:11;;;;;;;;;38.50;34.00;;;;;17.57;61.72;99685.66;5027120;28;9668;-75
2022/11/07 05:55:40;;;;;;;;;40.00;34.75;;;;;17.60;61.69;99690.88;5028478;28;8860;-77
2022/11/07 05:58:12;;;;;;;;;42.75;37.00;;;;;17.72;61.86;99697.56;5026490;28;8859;-79
2022/11/07 06:00:41;;;;;;;;;55.75;43.50;;;;;17.58;61.36;99697.97;5032782;28;8865;-80
2022/11/07 06:03:10;;;;;;;;;52.00;42.00;;;;;17.58;61.90;99695.31;5046741;28;9015;-78
2022/11/07 06:05:39;;;;;;;;;47.25;39.00;;;;;17.40;62.10;99699.28;5048460;28;8977;-78
2022/11/07 06:08:10;;;;;;;;;44.25;38.50;;;;;17.49;62.37;99703.47;5047349;28;8865;-78
2022/11/07 06:10:40;;;;;;;;;46.00;38.50;;;;;17.50;62.00;99705.19;5062999;28;8881;-78
2022/11/07 06:13:13;;;;;;;;;44.75;38.25;;;;;17.54;62.22;99710.34;5037163;28;8875;-75
2022/11/07 06:15:43;;;;;;;;;52.00;38.50;;;;;17.54;62.15;99709.47;5039245;28;9598;-76
2022/11/07 06:18:16;;;;;;;;;53.50;42.00;;;;;17.64;62.26;99723.31;5027095;28;8871;-79
2022/11/07 06:20:44;;;;;;;;;40.00;34.25;;;;;17.64;61.79;99718.03;5009799;28;8917;-77
2022/11/07 06:23:13;;;;;;;;;47.00;39.00;;;;;17.68;61.87;99731.06;5010799;28;8863;-78
2022/11/07 06:25:43;;;;;;;;;48.50;38.25;;;;;17.64;61.62;99725.94;5028337;28;8999;-77
2022/11/07 06:28:14;;;;;;;;;50.75;39.00;;;;;17.59;61.70;99726.03;5010510;28;8875;-79
2022/11/07 06:30:43;;;;;;;;;47.50;39.00;;;;;17.49;61.87;99728.06;5026260;28;8995;-81
2022/11/07 06:33:15;;;;;;;;;45.00;37.75;;;;;17.55;62.15;99732.31;5026483;28;8868;-77
2022/11/07 06:35:44;;;;;;;;;42.50;37.25;;;;;17.68;61.99;99736.34;5044919;28;8971;-78
2022/11/07 06:38:14;;;;;;;;;49.00;39.00;;;;;17.71;61.84;99741.56;5045778;28;8848;-78
2022/11/07 06:40:44;;;;;;;;;49.00;38.75;;;;;17.78;61.79;99747.50;5029760;28;8853;-79
2022/11/07 06:43:16;;;;;;;;;39.75;35.75;;;;;17.85;61.78;99762.31;5050275;28;8864;-77
2022/11/07 06:45:46;;;;;;;;;48.50;39.00;;;;;17.78;61.47;99765.13;5062266;28;8846;-78
2022/11/07 06:48:15;;;;;;;;;43.75;38.00;;;;;17.85;61.51;99766.72;5052783;28;8864;-78
2022/11/07 06:50:44;;;;;;;;;44.75;38.50;;;;;17.85;61.31;99772.88;5046046;28;8853;-80
2022/11/07 06:53:13;;;;;;;;;45.80;38.00;;;;;17.86;61.42;99771.09;5048240;28;8873;-81
2022/11/07 06:55:42;;;;;;;;;46.00;36.00;;;;;17.97;61.13;99769.03;5032614;28;8861;-77
2022/11/07 06:58:11;;;;;;;;;48.25;39.50;;;;;17.95;61.04;99772.63;5035927;28;8863;-75
2022/11/07 07:00:42;;;;;;;;;52.50;39.25;;;;;17.99;60.86;99769.84;4997536;28;8855;-79
2022/11/07 07:03:11;;;;;;;;;37.75;33.75;;;;;18.04;61.18;99775.88;5034126;28;8948;-80
2022/11/07 07:05:41;;;;;;;;;52.75;44.25;;;;;18.05;60.96;99774.09;5047007;28;8887;-79
2022/11/07 07:08:12;;;;;;;;;55.50;46.50;;;;;18.09;61.15;99768.69;5017466;28;8876;-77
2022/11/07 07:10:44;;;;;;;;;48.25;40.25;;;;;18.14;60.49;99779.13;4974722;28;8875;-77
2022/11/07 07:13:14;;;;;;;;;49.50;39.25;;;;;18.06;60.52;99773.19;5021977;28;8880;-78
2022/11/07 07:15:52;;;;;;;;;47.50;37.75;;;;;18.22;60.46;99769.22;5024128;28;8868;-79
2022/11/07 07:18:21;;;;;;;;;48.00;38.75;;;;;18.11;60.54;99773.94;5038281;28;8880;-78
2022/11/07 07:20:51;;;;;;;;;55.25;44.00;;;;;18.03;60.49;99778.53;5011042;28;8869;-79
2022/11/07 07:23:20;;;;;;;;;72.50;56.00;;;;;17.98;60.91;99768.13;5010638;28;8861;-78
2022/11/07 07:25:51;;;;;;;;;65.75;52.75;;;;;17.96;61.10;99774.34;5029467;28;9003;-81
2022/11/07 07:28:20;;;;;;;;;59.00;45.25;;;;;18.00;60.73;99766.31;5031249;28;9586;-79
2022/11/07 07:30:50;;;;;;;;;56.75;42.25;;;;;17.85;60.88;99762.31;5010268;28;8856;-78
2022/11/07 07:33:20;;;;;;;;;47.75;38.25;;;;;17.87;61.38;99773.69;5015962;28;8937;-79
2022/11/07 07:35:48;;;;;;;;;39.00;34.00;;;;;17.92;61.16;99763.88;5039558;28;8906;-78
2022/11/07 07:38:17;;;;;;;;;52.50;43.50;;;;;17.93;61.71;99773.50;5042517;28;9011;-78
2022/11/07 07:40:45;;;;;;;;;51.25;42.25;;;;;17.93;61.17;99768.22;5078061;28;8864;-79
2022/11/07 07:43:14;;;;;;;;;54.75;43.75;;;;;18.01;61.33;99768.03;5005382;28;8867;-79
2022/11/07 07:45:43;;;;;;;;;57.00;46.50;;;;;18.03;61.14;99770.63;5059712;28;8862;-76
2022/11/07 07:48:13;;;;;;;;;54.25;43.75;;;;;18.04;60.91;99773.22;5031783;28;8855;-80
2022/11/07 07:50:42;;;;;;;;;54.50;44.75;;;;;18.01;61.29;99775.09;5032281;28;8837;-73
2022/11/07 07:53:10;;;;;;;;;52.75;41.50;;;;;18.08;60.84;99776.66;5065687;28;9677;-72
2022/11/07 07:55:39;;;;;;;;;51.75;38.75;;;;;17.97;61.24;99776.06;5067220;28;9018;-71
2022/11/07 07:58:07;;;;;;;;;54.25;43.00;;;;;17.93;61.12;99784.06;5068953;28;8886;-77
2022/11/07 08:00:36;;;;;;;;;50.75;42.00;;;;;18.02;61.31;99784.75;5045778;28;8857;-71
2022/11/07 08:03:07;;;;;;;;;55.75;40.50;;;;;18.04;61.29;99783.78;5046469;28;8946;-78
2022/11/07 08:05:38;;;;;;;;;51.75;42.75;;;;;18.13;61.40;99780.03;5049185;28;8856;-71
2022/11/07 08:08:08;;;;;;;;;52.75;43.50;;;;;18.18;61.12;99786.03;5049865;28;8941;-74
2022/11/07 08:10:37;;;;;;;;;51.25;42.50;;;;;18.22;60.92;99786.81;5041136;28;8861;-72
2022/11/07 08:13:10;;;;;;;;;48.25;41.00;;;;;18.31;60.88;99789.19;5049164;28;8911;-78
2022/11/07 08:15:40;;;;;;;;;53.50;40.75;;;;;18.37;60.22;99780.25;5042935;28;8993;-78
2022/11/07 08:18:08;;;;;;;;;50.75;41.50;;;;;18.43;59.77;99786.22;5045481;28;8853;-78
2022/11/07 08:20:38;;;;;;;;;46.25;38.50;;;;;18.45;59.57;99788.78;5032171;28;9729;-78
2022/11/07 08:23:09;;;;;;;;;57.00;45.25;;;;;18.49;59.37;99786.03;5050105;28;8957;-78
2022/11/07 08:25:48;;;;;;;;;48.00;38.75;;;;;18.51;59.85;99788.63;5045851;28;8868;-78
2022/11/07 08:28:19;;;;;;;;;52.50;40.00;;;;;18.58;59.87;99791.94;5048164;28;8887;-80
2022/11/07 08:30:54;;;;;;;;;49.25;40.00;;;;;18.70;59.44;99787.16;5063868;28;8894;-76
2022/11/07 08:33:23;;;;;;;;;50.50;40.50;;;;;18.66;59.08;99785.53;5061239;28;9000;-78
2022/11/07 08:35:54;;;;;;;;;51.00;42.00;;;;;18.70;59.14;99788.97;5062508;28;8880;-79
2022/11/07 08:38:23;;;;;;;;;51.50;41.50;;;;;18.71;59.33;99793.31;5052601;28;8857;-82
2022/11/07 08:40:52;;;;;;;;;51.50;42.75;;;;;18.70;59.48;99791.59;5049496;28;8863;-78
2022/11/07 08:43:21;;;;;;;;;59.75;45.50;;;;;18.68;59.49;99796.06;5049954;28;8914;-78
2022/11/07 08:45:50;;;;;;;;;56.00;46.75;;;;;18.72;59.46;99792.41;5002729;28;8848;-80
2022/11/07 08:48:19;;;;;;;;;58.50;47.50;;;;;18.78;59.41;99801.94;5040378;28;8877;-78
2022/11/07 08:50:53;;;;;;;;;59.50;46.50;;;;;18.86;59.59;99805.22;5043743;28;8961;-78
2022/11/07 08:53:23;;;;;;;;;56.00;45.25;;;;;18.79;59.51;99801.91;5041944;28;8875;-78
2022/11/07 08:55:52;;;;;;;;;54.25;42.25;;;;;18.75;59.22;99800.25;5046965;28;8869;-78
2022/11/07 08:58:20;;;;;;;;;55.50;46.00;;;;;18.74;59.28;99802.94;5048664;28;8841;-81
2022/11/07 09:00:56;;;;;;;;;48.25;40.00;;;;;18.78;58.93;99804.56;5049532;28;8923;-80
2022/11/07 09:03:25;;;;;;;;;51.00;42.25;;;;;18.86;58.68;99797.31;5031175;28;9563;-78
2022/11/07 09:06:15;;;;;;;;;46.75;40.00;;;;;18.96;58.42;99797.88;5030120;28;8907;-78
2022/11/07 09:08:44;;;;;;;;;52.75;43.00;;;;;19.04;58.50;99801.19;5039660;28;9019;-79
2022/11/07 09:11:17;;;;;;;;;52.75;42.75;;;;;18.76;58.46;99809.03;5039541;28;8885;-79
2022/11/07 09:13:46;;;;;;;;;51.50;43.00;;;;;18.87;58.54;99807.84;5049052;28;8908;-77
2022/11/07 09:16:17;;;;;;;;;54.00;42.75;;;;;18.94;58.60;99808.53;5048183;28;8890;-81
2022/11/07 09:18:46;;;;;;;;;52.25;41.00;;;;;18.69;58.84;99813.63;5042368;28;8871;-77
2022/11/07 09:21:16;;;;;;;;;58.00;45.25;;;;;18.82;59.06;99815.03;5039400;28;8868;-78
2022/11/07 09:23:50;;;;;;;;;55.50;43.75;;;;;18.91;59.20;99819.19;5029055;28;8870;-80
2022/11/07 09:26:19;;;;;;;;;55.50;45.75;;;;;18.87;58.97;99820.19;5037032;28;9017;-77
2022/11/07 09:28:48;;;;;;;;;55.25;46.00;;;;;19.00;58.87;99818.03;5061732;28;8848;-79
2022/11/07 09:31:21;;;;;;;;;54.50;44.75;;;;;18.92;58.29;99831.47;5057236;28;8868;-78
2022/11/07 09:33:50;;;;;;;;;55.50;46.00;;;;;18.95;58.48;99831.38;5032307;28;8861;-78
2022/11/07 09:36:21;;;;;;;;;56.25;46.25;;;;;18.79;58.41;99827.44;5051229;28;8857;-77
2022/11/07 09:38:50;;;;;;;;;56.00;46.75;;;;;18.54;59.01;99833.44;5047519;28;8906;-77
2022/11/07 09:41:32;;;;;;;;;58.25;46.25;;;;;18.46;59.36;99838.94;5049539;28;9049;-79
2022/11/07 09:44:22;;;;;;;;;61.25;48.25;;;;;17.87;61.37;99844.06;5047552;28;8860;-77
2022/11/07 09:47:01;;;;;;;;;56.75;45.00;;;;;18.03;61.31;99841.88;5037646;28;8867;-78
2022/11/07 09:49:36;;;;;;;;;54.25;43.25;;;;;18.03;61.36;99840.09;5033254;28;8851;-78
2022/11/07 09:52:15;;;;;;;;;60.50;47.25;;;;;17.82;62.20;99835.34;5040927;28;8890;-79
2022/11/07 09:54:50;;;;;;;;;61.25;48.25;;;;;17.20;63.81;99841.25;5013560;28;8887;-78
2022/11/07 09:57:20;;;;;;;;;60.00;45.25;;;;;17.39;63.27;99832.03;4995573;28;9044;-79
2022/11/07 09:59:53;;;;;;;;;55.25;44.00;;;;;17.03;64.46;99836.34;4991945;28;8877;-78
2022/11/07 10:02:26;;;;;;;;;53.75;42.50;;;;;16.66;65.78;99845.03;4995000;28;8897;-77
2022/11/07 10:04:58;;;;;;;;;53.25;40.25;;;;;16.34;66.86;99844.75;5006265;28;9000;-79
2022/11/07 10:07:40;;;;;;;;;52.50;42.00;;;;;16.55;66.41;99834.72;4954049;28;8885;-76
2022/11/07 10:10:18;;;;;;;;;54.25;43.50;;;;;16.14;67.98;99836.38;4971014;28;9992;-77
2022/11/07 10:13:07;;;;;;;;;56.75;43.25;;;;;16.06;69.05;99833.03;4970254;28;9069;-77
2022/11/07 10:15:51;;;;;;;;;55.00;44.50;;;;;16.15;69.69;99838.13;4986888;28;8881;-78
2022/11/07 10:18:33;;;;;;;;;50.25;41.00;;;;;16.80;67.89;99836.84;4955771;28;8858;-77
2022/11/07 10:21:08;;;;;;;;;59.75;44.00;;;;;17.15;66.45;99829.03;5016607;28;8870;-76
2022/11/07 10:24:15;;;;;;;;;59.50;48.75;;;;;17.58;65.22;99835.09;5011967;28;8874;-78
2022/11/07 10:26:45;;;;;;;;;59.75;48.75;;;;;17.73;64.39;99826.78;5017975;28;8886;-79
2022/11/07 10:29:16;;;;;;;;;58.75;46.50;;;;;17.93;63.26;99828.06;5042767;28;8857;-78
2022/11/07 10:31:53;;;;;;;;;58.75;46.50;;;;;18.10;63.03;99831.13;5054161;28;8907;-78
2022/11/07 10:34:29;;;;;;;;;53.50;43.75;;;;;18.19;62.12;99832.66;5053586;28;9695;-79
2022/11/07 10:36:58;;;;;;;;;58.00;46.25;;;;;18.26;61.82;99831.59;4995148;28;8879;-80
2022/11/07 10:39:31;;;;;;;;;58.00;46.75;;;;;18.48;61.62;99826.53;5018620;28;8868;-79
2022/11/07 10:42:05;;;;;;;;;51.25;42.00;;;;;18.61;61.40;99811.22;5029517;28;8989;-79
2022/11/07 10:44:35;;;;;;;;;56.50;46.00;;;;;18.57;61.28;99819.28;5048152;28;9010;-78
2022/11/07 10:47:15;;;;;;;;;60.00;49.00;;;;;18.82;61.25;99819.44;5060090;28;8868;-81
2022/11/07 10:49:55;;;;;;;;;63.75;47.25;;;;;18.89;60.56;99818.38;5047552;28;8876;-80
2022/11/07 10:52:25;;;;;;;;;56.00;45.25;;;;;18.86;60.49;99821.09;5024659;28;8883;-79
2022/11/07 10:55:07;;;;;;;;;64.25;49.75;;;;;19.05;59.96;99818.75;5045263;28;8945;-79
2022/11/07 10:57:36;;;;;;;;;62.25;49.00;;;;;18.96;59.68;99816.38;5039898;28;8890;-77
2022/11/07 11:00:20;;;;;;;;;66.75;50.25;;;;;19.03;59.98;99810.84;5031810;28;8891;-79
2022/11/07 11:02:50;;;;;;;;;58.75;46.00;;;;;19.07;59.76;99809.00;5008636;28;8859;-78
2022/11/07 11:05:25;;;;;;;;;57.75;46.25;;;;;19.19;59.63;99811.25;5034432;28;8887;-80
2022/11/07 11:07:56;;;;;;;;;58.50;45.75;;;;;19.16;59.50;99808.69;5024787;28;8880;-79
2022/11/07 11:10:29;;;;;;;;;58.75;46.75;;;;;19.15;59.49;99806.09;5044214;28;8861;-79
2022/11/07 11:12:58;;;;;;;;;69.75;53.25;;;;;19.11;59.29;99810.66;5031101;28;9638;-78
2022/11/07 11:15:27;;;;;;;;;66.50;52.75;;;;;19.17;59.21;99810.44;5052465;28;8925;-80
2022/11/07 11:18:05;;;;;;;;;71.50;54.75;;;;;19.20;59.35;99806.84;5059104;28;8852;-78
2022/11/07 11:20:37;;;;;;;;;70.50;54.75;;;;;19.39;58.67;99805.31;5048264;28;9028;-79
2022/11/07 11:23:15;;;;;;;;;65.00;52.25;;;;;19.35;58.67;99803.69;5029319;28;8875;-78
2022/11/07 11:25:47;;;;;;;;;67.50;52.50;;;;;19.18;58.81;99803.38;5027689;28;8860;-80
2022/11/07 11:28:24;;;;;;;;;64.50;51.75;;;;;19.29;58.78;99799.47;5030622;28;8961;-80
2022/11/07 11:30:57;;;;;;;;;66.00;52.50;;;;;19.32;58.88;99792.34;5036508;28;8895;-79
2022/11/07 11:33:31;;;;;;;;;70.00;55.25;;;;;19.36;59.35;99799.28;5049352;28;8848;-80
2022/11/07 11:36:06;;;;;;;;;71.00;56.00;;;;;19.39;58.56;99793.88;5048352;28;8888;-81
2022/11/07 11:38:36;;;;;;;;;69.00;55.00;;;;;19.45;58.52;99794.56;5049922;28;9613;-79
2022/11/07 11:41:17;;;;;;;;;70.50;55.50;;;;;19.60;58.50;99789.66;5045513;28;9010;-78
2022/11/07 11:43:50;;;;;;;;;72.25;55.00;;;;;19.47;58.20;99794.50;5044668;28;8859;-78
2022/11/07 11:46:27;;;;;;;;;69.75;54.50;;;;;19.59;57.95;99790.59;5034471;28;8869;-80
2022/11/07 11:49:01;;;;;;;;;69.50;54.50;;;;;19.59;57.95;99791.44;5047475;28;8972;-80